sensor_id;sensor_type;location;lat;lon;timestamp;P1;durP1;ratioP1;P2;durP2;ratioP2
3311;SDS011;1668;49.648;8.570;2023-07-22T00:02:02;3.53;;;2.13;;
3311;SDS011;1668;49.648;8.570;2023-07-22T00:04:29;4.20;;;2.40;;
3311;SDS011;1668;49.648;8.570;2023-07-22T00:06:55;2.40;;;1.80;;
3311;SDS011;1668;49.648;8.570;2023-07-22T00:09:22;3.70;;;2.47;;
3311;SDS011;1668;49.648;8.570;2023-07-22T00:11:50;3.93;;;2.47;;
3311;SDS011;1668;49.648;8.570;2023-07-22T00:14:17;3.87;;;2.33;;
3311;SDS011;1668;49.648;8.570;2023-07-22T00:16:44;2.87;;;2.30;;
3311;SDS011;1668;49.648;8.570;2023-07-22T00:19:11;3.13;;;2.10;;
3311;SDS011;1668;49.648;8.570;2023-07-22T00:21:39;2.87;;;2.30;;
3311;SDS011;1668;49.648;8.570;2023-07-22T00:24:06;3.90;;;2.50;;
3311;SDS011;1668;49.648;8.570;2023-07-22T00:26:33;4.07;;;2.27;;
3311;SDS011;1668;49.648;8.570;2023-07-22T00:29:01;6.40;;;3.87;;
3311;SDS011;1668;49.648;8.570;2023-07-22T00:31:29;4.10;;;2.90;;
3311;SDS011;1668;49.648;8.570;2023-07-22T00:33:56;4.20;;;2.70;;
3311;SDS011;1668;49.648;8.570;2023-07-22T00:36:23;3.17;;;2.03;;
3311;SDS011;1668;49.648;8.570;2023-07-22T00:38:50;4.87;;;2.23;;
3311;SDS011;1668;49.648;8.570;2023-07-22T00:41:17;4.27;;;2.30;;
3311;SDS011;1668;49.648;8.570;2023-07-22T00:43:45;2.87;;;2.20;;
3311;SDS011;1668;49.648;8.570;2023-07-22T00:46:13;2.70;;;2.07;;
3311;SDS011;1668;49.648;8.570;2023-07-22T00:48:40;7.60;;;2.40;;
3311;SDS011;1668;49.648;8.570;2023-07-22T00:51:08;3.90;;;2.57;;
3311;SDS011;1668;49.648;8.570;2023-07-22T00:53:35;4.10;;;2.30;;
3311;SDS011;1668;49.648;8.570;2023-07-22T00:56:02;2.80;;;2.20;;
3311;SDS011;1668;49.648;8.570;2023-07-22T00:58:29;3.60;;;2.40;;
3311;SDS011;1668;49.648;8.570;2023-07-22T01:00:56;5.30;;;2.50;;
3311;SDS011;1668;49.648;8.570;2023-07-22T01:03:25;3.83;;;2.43;;
3311;SDS011;1668;49.648;8.570;2023-07-22T01:05:53;3.00;;;2.50;;
3311;SDS011;1668;49.648;8.570;2023-07-22T01:08:22;4.03;;;2.40;;
3311;SDS011;1668;49.648;8.570;2023-07-22T01:10:49;3.53;;;2.30;;
3311;SDS011;1668;49.648;8.570;2023-07-22T01:13:15;7.87;;;2.60;;
3311;SDS011;1668;49.648;8.570;2023-07-22T01:15:42;4.03;;;2.33;;
3311;SDS011;1668;49.648;8.570;2023-07-22T01:18:09;4.13;;;2.50;;
3311;SDS011;1668;49.648;8.570;2023-07-22T01:20:38;3.40;;;2.57;;
3311;SDS011;1668;49.648;8.570;2023-07-22T01:23:06;4.83;;;2.90;;
3311;SDS011;1668;49.648;8.570;2023-07-22T01:25:33;3.70;;;2.60;;
3311;SDS011;1668;49.648;8.570;2023-07-22T01:28:00;2.90;;;2.60;;
3311;SDS011;1668;49.648;8.570;2023-07-22T01:30:27;7.33;;;3.03;;
3311;SDS011;1668;49.648;8.570;2023-07-22T01:32:54;3.33;;;2.70;;
3311;SDS011;1668;49.648;8.570;2023-07-22T01:35:21;6.63;;;2.80;;
3311;SDS011;1668;49.648;8.570;2023-07-22T01:37:48;3.80;;;2.47;;
3311;SDS011;1668;49.648;8.570;2023-07-22T01:40:16;4.77;;;2.70;;
3311;SDS011;1668;49.648;8.570;2023-07-22T01:42:43;4.07;;;2.60;;
3311;SDS011;1668;49.648;8.570;2023-07-22T01:45:10;3.50;;;2.70;;
3311;SDS011;1668;49.648;8.570;2023-07-22T01:47:38;4.90;;;2.57;;
3311;SDS011;1668;49.648;8.570;2023-07-22T01:50:05;4.13;;;3.30;;
3311;SDS011;1668;49.648;8.570;2023-07-22T01:52:33;3.00;;;2.50;;
3311;SDS011;1668;49.648;8.570;2023-07-22T01:55:00;4.10;;;3.07;;
3311;SDS011;1668;49.648;8.570;2023-07-22T01:57:32;4.13;;;2.80;;
3311;SDS011;1668;49.648;8.570;2023-07-22T01:59:58;4.40;;;2.73;;
3311;SDS011;1668;49.648;8.570;2023-07-22T02:02:25;4.83;;;2.63;;
3311;SDS011;1668;49.648;8.570;2023-07-22T02:04:52;5.47;;;2.50;;
3311;SDS011;1668;49.648;8.570;2023-07-22T02:07:19;6.00;;;3.00;;
3311;SDS011;1668;49.648;8.570;2023-07-22T02:09:46;3.90;;;2.90;;
3311;SDS011;1668;49.648;8.570;2023-07-22T02:12:16;4.67;;;2.70;;
3311;SDS011;1668;49.648;8.570;2023-07-22T02:14:45;3.97;;;2.80;;
3311;SDS011;1668;49.648;8.570;2023-07-22T02:17:11;4.40;;;3.10;;
3311;SDS011;1668;49.648;8.570;2023-07-22T02:19:38;3.70;;;2.93;;
3311;SDS011;1668;49.648;8.570;2023-07-22T02:22:05;4.17;;;3.00;;
3311;SDS011;1668;49.648;8.570;2023-07-22T02:24:32;7.13;;;3.50;;
3311;SDS011;1668;49.648;8.570;2023-07-22T02:26:59;7.73;;;3.30;;
3311;SDS011;1668;49.648;8.570;2023-07-22T02:29:26;3.30;;;2.83;;
3311;SDS011;1668;49.648;8.570;2023-07-22T02:31:54;3.87;;;2.70;;
3311;SDS011;1668;49.648;8.570;2023-07-22T02:34:21;2.83;;;2.53;;
3311;SDS011;1668;49.648;8.570;2023-07-22T02:36:48;4.30;;;3.07;;
3311;SDS011;1668;49.648;8.570;2023-07-22T02:39:15;4.23;;;3.10;;
3311;SDS011;1668;49.648;8.570;2023-07-22T02:41:42;4.77;;;3.03;;
3311;SDS011;1668;49.648;8.570;2023-07-22T02:44:08;3.17;;;2.87;;
3311;SDS011;1668;49.648;8.570;2023-07-22T02:46:35;4.70;;;2.97;;
3311;SDS011;1668;49.648;8.570;2023-07-22T02:49:03;4.70;;;2.53;;
3311;SDS011;1668;49.648;8.570;2023-07-22T02:51:30;4.30;;;2.87;;
3311;SDS011;1668;49.648;8.570;2023-07-22T02:53:57;4.90;;;2.90;;
3311;SDS011;1668;49.648;8.570;2023-07-22T02:56:24;4.00;;;3.13;;
3311;SDS011;1668;49.648;8.570;2023-07-22T02:58:51;7.27;;;3.00;;
3311;SDS011;1668;49.648;8.570;2023-07-22T03:01:18;4.07;;;3.13;;
3311;SDS011;1668;49.648;8.570;2023-07-22T03:03:45;5.10;;;2.83;;
3311;SDS011;1668;49.648;8.570;2023-07-22T03:06:13;4.20;;;3.07;;
3311;SDS011;1668;49.648;8.570;2023-07-22T03:08:40;4.00;;;3.10;;
3311;SDS011;1668;49.648;8.570;2023-07-22T03:11:07;4.60;;;3.50;;
3311;SDS011;1668;49.648;8.570;2023-07-22T03:13:34;4.53;;;2.70;;
3311;SDS011;1668;49.648;8.570;2023-07-22T03:16:01;4.03;;;2.90;;
3311;SDS011;1668;49.648;8.570;2023-07-22T03:18:29;6.17;;;3.43;;
3311;SDS011;1668;49.648;8.570;2023-07-22T03:20:56;4.10;;;3.10;;
3311;SDS011;1668;49.648;8.570;2023-07-22T03:23:25;4.73;;;3.60;;
3311;SDS011;1668;49.648;8.570;2023-07-22T03:25:52;5.00;;;3.07;;
3311;SDS011;1668;49.648;8.570;2023-07-22T03:28:19;6.90;;;3.20;;
3311;SDS011;1668;49.648;8.570;2023-07-22T03:30:45;4.20;;;3.00;;
3311;SDS011;1668;49.648;8.570;2023-07-22T03:33:12;3.57;;;2.70;;
3311;SDS011;1668;49.648;8.570;2023-07-22T03:35:40;3.00;;;2.63;;
3311;SDS011;1668;49.648;8.570;2023-07-22T03:38:07;4.30;;;3.20;;
3311;SDS011;1668;49.648;8.570;2023-07-22T03:40:35;4.33;;;3.00;;
3311;SDS011;1668;49.648;8.570;2023-07-22T03:43:03;4.27;;;3.30;;
3311;SDS011;1668;49.648;8.570;2023-07-22T03:45:30;4.20;;;3.57;;
3311;SDS011;1668;49.648;8.570;2023-07-22T03:47:58;5.67;;;3.50;;
3311;SDS011;1668;49.648;8.570;2023-07-22T03:50:26;4.20;;;3.27;;
3311;SDS011;1668;49.648;8.570;2023-07-22T03:52:54;9.57;;;4.00;;
3311;SDS011;1668;49.648;8.570;2023-07-22T03:55:20;5.80;;;3.23;;
3311;SDS011;1668;49.648;8.570;2023-07-22T03:57:49;5.57;;;3.50;;
3311;SDS011;1668;49.648;8.570;2023-07-22T04:00:16;4.10;;;3.60;;
3311;SDS011;1668;49.648;8.570;2023-07-22T04:02:43;4.10;;;3.00;;
3311;SDS011;1668;49.648;8.570;2023-07-22T04:05:10;7.57;;;3.90;;
3311;SDS011;1668;49.648;8.570;2023-07-22T04:07:37;4.20;;;3.20;;
3311;SDS011;1668;49.648;8.570;2023-07-22T04:10:05;5.20;;;3.30;;
3311;SDS011;1668;49.648;8.570;2023-07-22T04:12:33;5.50;;;3.70;;
3311;SDS011;1668;49.648;8.570;2023-07-22T04:15:01;3.23;;;2.93;;
3311;SDS011;1668;49.648;8.570;2023-07-22T04:17:28;4.43;;;3.53;;
3311;SDS011;1668;49.648;8.570;2023-07-22T04:19:55;4.93;;;3.47;;
3311;SDS011;1668;49.648;8.570;2023-07-22T04:22:22;5.17;;;3.70;;
3311;SDS011;1668;49.648;8.570;2023-07-22T04:24:49;4.20;;;3.00;;
3311;SDS011;1668;49.648;8.570;2023-07-22T04:27:16;4.23;;;3.10;;
3311;SDS011;1668;49.648;8.570;2023-07-22T04:29:45;3.67;;;2.70;;
3311;SDS011;1668;49.648;8.570;2023-07-22T04:32:13;7.93;;;3.40;;
3311;SDS011;1668;49.648;8.570;2023-07-22T04:34:40;4.63;;;3.37;;
3311;SDS011;1668;49.648;8.570;2023-07-22T04:37:07;4.87;;;3.00;;
3311;SDS011;1668;49.648;8.570;2023-07-22T04:39:34;4.70;;;3.83;;
3311;SDS011;1668;49.648;8.570;2023-07-22T04:42:01;4.90;;;3.40;;
3311;SDS011;1668;49.648;8.570;2023-07-22T04:44:28;4.30;;;3.50;;
3311;SDS011;1668;49.648;8.570;2023-07-22T04:46:55;4.77;;;3.37;;
3311;SDS011;1668;49.648;8.570;2023-07-22T04:49:23;9.00;;;3.40;;
3311;SDS011;1668;49.648;8.570;2023-07-22T04:51:50;4.50;;;3.47;;
3311;SDS011;1668;49.648;8.570;2023-07-22T04:54:17;4.80;;;3.50;;
3311;SDS011;1668;49.648;8.570;2023-07-22T04:56:44;4.63;;;3.50;;
3311;SDS011;1668;49.648;8.570;2023-07-22T04:59:11;5.13;;;3.30;;
3311;SDS011;1668;49.648;8.570;2023-07-22T05:01:39;4.87;;;3.33;;
3311;SDS011;1668;49.648;8.570;2023-07-22T05:04:06;3.67;;;2.60;;
3311;SDS011;1668;49.648;8.570;2023-07-22T05:06:34;5.10;;;3.13;;
3311;SDS011;1668;49.648;8.570;2023-07-22T05:09:02;6.63;;;3.30;;
3311;SDS011;1668;49.648;8.570;2023-07-22T05:11:29;5.77;;;3.60;;
3311;SDS011;1668;49.648;8.570;2023-07-22T05:13:56;6.40;;;4.00;;
3311;SDS011;1668;49.648;8.570;2023-07-22T05:16:23;7.80;;;4.37;;
3311;SDS011;1668;49.648;8.570;2023-07-22T05:18:50;7.87;;;4.10;;
3311;SDS011;1668;49.648;8.570;2023-07-22T05:21:17;6.27;;;4.17;;
3311;SDS011;1668;49.648;8.570;2023-07-22T05:23:45;8.17;;;4.30;;
3311;SDS011;1668;49.648;8.570;2023-07-22T05:26:12;5.00;;;3.40;;
3311;SDS011;1668;49.648;8.570;2023-07-22T05:28:39;4.50;;;3.33;;
3311;SDS011;1668;49.648;8.570;2023-07-22T05:31:06;7.70;;;3.27;;
3311;SDS011;1668;49.648;8.570;2023-07-22T05:33:33;5.70;;;4.00;;
3311;SDS011;1668;49.648;8.570;2023-07-22T05:36:01;4.63;;;3.73;;
3311;SDS011;1668;49.648;8.570;2023-07-22T05:38:27;4.73;;;3.17;;
3311;SDS011;1668;49.648;8.570;2023-07-22T05:40:57;5.70;;;3.67;;
3311;SDS011;1668;49.648;8.570;2023-07-22T05:43:24;4.90;;;3.87;;
3311;SDS011;1668;49.648;8.570;2023-07-22T05:45:51;5.10;;;3.83;;
3311;SDS011;1668;49.648;8.570;2023-07-22T05:48:18;5.40;;;3.30;;
3311;SDS011;1668;49.648;8.570;2023-07-22T05:50:46;4.33;;;3.50;;
3311;SDS011;1668;49.648;8.570;2023-07-22T05:53:14;4.27;;;3.80;;
3311;SDS011;1668;49.648;8.570;2023-07-22T05:55:41;4.50;;;3.73;;
3311;SDS011;1668;49.648;8.570;2023-07-22T05:58:12;4.87;;;3.70;;
3311;SDS011;1668;49.648;8.570;2023-07-22T06:00:42;5.57;;;3.50;;
3311;SDS011;1668;49.648;8.570;2023-07-22T06:03:09;5.20;;;3.60;;
3311;SDS011;1668;49.648;8.570;2023-07-22T06:05:36;5.53;;;4.07;;
3311;SDS011;1668;49.648;8.570;2023-07-22T06:08:03;5.70;;;3.67;;
3311;SDS011;1668;49.648;8.570;2023-07-22T06:10:31;5.50;;;3.70;;
3311;SDS011;1668;49.648;8.570;2023-07-22T06:12:58;4.67;;;3.40;;
3311;SDS011;1668;49.648;8.570;2023-07-22T06:15:26;6.63;;;4.03;;
3311;SDS011;1668;49.648;8.570;2023-07-22T06:17:53;5.30;;;3.90;;
3311;SDS011;1668;49.648;8.570;2023-07-22T06:20:20;5.67;;;4.00;;
3311;SDS011;1668;49.648;8.570;2023-07-22T06:22:47;4.60;;;3.40;;
3311;SDS011;1668;49.648;8.570;2023-07-22T06:25:14;6.37;;;4.17;;
3311;SDS011;1668;49.648;8.570;2023-07-22T06:27:41;5.03;;;3.50;;
3311;SDS011;1668;49.648;8.570;2023-07-22T06:30:09;4.83;;;3.77;;
3311;SDS011;1668;49.648;8.570;2023-07-22T06:32:37;6.17;;;3.83;;
3311;SDS011;1668;49.648;8.570;2023-07-22T06:35:05;6.03;;;3.67;;
3311;SDS011;1668;49.648;8.570;2023-07-22T06:37:33;5.40;;;3.33;;
3311;SDS011;1668;49.648;8.570;2023-07-22T06:40:00;5.57;;;4.20;;
3311;SDS011;1668;49.648;8.570;2023-07-22T06:42:27;5.37;;;4.03;;
3311;SDS011;1668;49.648;8.570;2023-07-22T06:44:54;5.40;;;3.83;;
3311;SDS011;1668;49.648;8.570;2023-07-22T06:47:21;12.13;;;4.27;;
3311;SDS011;1668;49.648;8.570;2023-07-22T06:49:50;5.03;;;3.73;;
3311;SDS011;1668;49.648;8.570;2023-07-22T06:52:17;7.40;;;3.70;;
3311;SDS011;1668;49.648;8.570;2023-07-22T06:54:43;4.70;;;3.70;;
3311;SDS011;1668;49.648;8.570;2023-07-22T06:57:10;4.30;;;3.43;;
3311;SDS011;1668;49.648;8.570;2023-07-22T06:59:37;4.97;;;3.47;;
3311;SDS011;1668;49.648;8.570;2023-07-22T07:02:04;5.80;;;3.30;;
3311;SDS011;1668;49.648;8.570;2023-07-22T07:04:31;8.47;;;3.33;;
3311;SDS011;1668;49.648;8.570;2023-07-22T07:07:00;4.80;;;3.20;;
3311;SDS011;1668;49.648;8.570;2023-07-22T07:09:27;4.90;;;3.50;;
3311;SDS011;1668;49.648;8.570;2023-07-22T07:11:54;8.00;;;3.63;;
3311;SDS011;1668;49.648;8.570;2023-07-22T07:14:22;9.77;;;3.50;;
3311;SDS011;1668;49.648;8.570;2023-07-22T07:16:49;4.80;;;3.80;;
3311;SDS011;1668;49.648;8.570;2023-07-22T07:19:16;5.00;;;3.77;;
3311;SDS011;1668;49.648;8.570;2023-07-22T07:21:43;6.40;;;2.80;;
3311;SDS011;1668;49.648;8.570;2023-07-22T07:24:11;3.63;;;3.10;;
3311;SDS011;1668;49.648;8.570;2023-07-22T07:26:38;4.47;;;3.40;;
3311;SDS011;1668;49.648;8.570;2023-07-22T07:29:05;5.73;;;2.87;;
3311;SDS011;1668;49.648;8.570;2023-07-22T07:31:32;4.17;;;3.00;;
3311;SDS011;1668;49.648;8.570;2023-07-22T07:33:58;4.70;;;3.40;;
3311;SDS011;1668;49.648;8.570;2023-07-22T07:36:25;5.03;;;3.20;;
3311;SDS011;1668;49.648;8.570;2023-07-22T07:38:52;5.90;;;3.50;;
3311;SDS011;1668;49.648;8.570;2023-07-22T07:41:20;7.50;;;3.57;;
3311;SDS011;1668;49.648;8.570;2023-07-22T07:43:48;4.40;;;3.30;;
3311;SDS011;1668;49.648;8.570;2023-07-22T07:46:15;6.63;;;3.40;;
3311;SDS011;1668;49.648;8.570;2023-07-22T07:48:45;4.43;;;3.30;;
3311;SDS011;1668;49.648;8.570;2023-07-22T07:51:13;6.13;;;3.70;;
3311;SDS011;1668;49.648;8.570;2023-07-22T07:53:40;4.90;;;2.80;;
3311;SDS011;1668;49.648;8.570;2023-07-22T07:56:09;4.60;;;3.10;;
3311;SDS011;1668;49.648;8.570;2023-07-22T07:58:38;6.60;;;3.67;;
3311;SDS011;1668;49.648;8.570;2023-07-22T08:01:05;5.20;;;3.50;;
3311;SDS011;1668;49.648;8.570;2023-07-22T08:03:33;7.33;;;3.20;;
3311;SDS011;1668;49.648;8.570;2023-07-22T08:06:01;5.53;;;3.67;;
3311;SDS011;1668;49.648;8.570;2023-07-22T08:08:29;8.10;;;3.60;;
3311;SDS011;1668;49.648;8.570;2023-07-22T08:11:00;5.17;;;3.37;;
3311;SDS011;1668;49.648;8.570;2023-07-22T08:13:27;5.63;;;3.57;;
3311;SDS011;1668;49.648;8.570;2023-07-22T08:15:57;4.03;;;3.20;;
3311;SDS011;1668;49.648;8.570;2023-07-22T08:18:24;7.37;;;3.60;;
3311;SDS011;1668;49.648;8.570;2023-07-22T08:20:51;5.73;;;2.70;;
3311;SDS011;1668;49.648;8.570;2023-07-22T08:23:19;7.40;;;3.20;;
3311;SDS011;1668;49.648;8.570;2023-07-22T08:25:46;5.60;;;3.27;;
3311;SDS011;1668;49.648;8.570;2023-07-22T08:28:13;4.67;;;2.80;;
3311;SDS011;1668;49.648;8.570;2023-07-22T08:30:40;7.30;;;3.53;;
3311;SDS011;1668;49.648;8.570;2023-07-22T08:33:09;3.90;;;2.87;;
3311;SDS011;1668;49.648;8.570;2023-07-22T08:35:36;3.30;;;3.00;;
3311;SDS011;1668;49.648;8.570;2023-07-22T08:38:03;9.20;;;3.40;;
3311;SDS011;1668;49.648;8.570;2023-07-22T08:40:32;14.50;;;3.77;;
3311;SDS011;1668;49.648;8.570;2023-07-22T08:43:00;7.17;;;3.40;;
3311;SDS011;1668;49.648;8.570;2023-07-22T08:45:29;4.90;;;3.07;;
3311;SDS011;1668;49.648;8.570;2023-07-22T08:47:59;6.80;;;3.03;;
3311;SDS011;1668;49.648;8.570;2023-07-22T08:50:34;4.20;;;3.47;;
3311;SDS011;1668;49.648;8.570;2023-07-22T08:53:06;3.80;;;3.00;;
3311;SDS011;1668;49.648;8.570;2023-07-22T08:55:33;5.00;;;3.37;;
3311;SDS011;1668;49.648;8.570;2023-07-22T08:58:01;8.23;;;2.80;;
3311;SDS011;1668;49.648;8.570;2023-07-22T09:00:28;7.47;;;3.17;;
3311;SDS011;1668;49.648;8.570;2023-07-22T09:02:56;5.20;;;3.50;;
3311;SDS011;1668;49.648;8.570;2023-07-22T09:05:25;6.83;;;3.23;;
3311;SDS011;1668;49.648;8.570;2023-07-22T09:07:53;3.57;;;2.60;;
3311;SDS011;1668;49.648;8.570;2023-07-22T09:10:21;7.00;;;2.97;;
3311;SDS011;1668;49.648;8.570;2023-07-22T09:12:51;5.00;;;2.83;;
3311;SDS011;1668;49.648;8.570;2023-07-22T09:15:18;11.07;;;3.33;;
3311;SDS011;1668;49.648;8.570;2023-07-22T09:17:46;13.60;;;3.17;;
3311;SDS011;1668;49.648;8.570;2023-07-22T09:20:13;4.40;;;3.10;;
3311;SDS011;1668;49.648;8.570;2023-07-22T09:22:42;6.03;;;3.00;;
3311;SDS011;1668;49.648;8.570;2023-07-22T09:25:15;4.43;;;3.20;;
3311;SDS011;1668;49.648;8.570;2023-07-22T09:27:44;6.90;;;3.00;;
3311;SDS011;1668;49.648;8.570;2023-07-22T09:30:21;4.03;;;2.53;;
3311;SDS011;1668;49.648;8.570;2023-07-22T09:32:50;6.23;;;2.70;;
3311;SDS011;1668;49.648;8.570;2023-07-22T09:35:18;4.40;;;2.77;;
3311;SDS011;1668;49.648;8.570;2023-07-22T09:37:46;5.73;;;2.80;;
3311;SDS011;1668;49.648;8.570;2023-07-22T09:40:16;5.40;;;2.70;;
3311;SDS011;1668;49.648;8.570;2023-07-22T09:42:47;4.53;;;2.63;;
3311;SDS011;1668;49.648;8.570;2023-07-22T09:45:15;3.53;;;2.27;;
3311;SDS011;1668;49.648;8.570;2023-07-22T09:47:43;5.33;;;2.80;;
3311;SDS011;1668;49.648;8.570;2023-07-22T09:50:11;13.13;;;2.63;;
3311;SDS011;1668;49.648;8.570;2023-07-22T09:52:46;5.20;;;2.30;;
3311;SDS011;1668;49.648;8.570;2023-07-22T09:55:16;5.20;;;2.03;;
3311;SDS011;1668;49.648;8.570;2023-07-22T09:57:44;5.63;;;2.73;;
3311;SDS011;1668;49.648;8.570;2023-07-22T10:00:14;5.10;;;2.57;;
3311;SDS011;1668;49.648;8.570;2023-07-22T10:02:44;5.37;;;2.43;;
3311;SDS011;1668;49.648;8.570;2023-07-22T10:05:15;3.43;;;2.40;;
3311;SDS011;1668;49.648;8.570;2023-07-22T10:07:43;11.70;;;2.60;;
3311;SDS011;1668;49.648;8.570;2023-07-22T10:10:12;4.50;;;2.60;;
3311;SDS011;1668;49.648;8.570;2023-07-22T10:12:43;3.30;;;2.20;;
3311;SDS011;1668;49.648;8.570;2023-07-22T10:15:11;4.27;;;2.80;;
3311;SDS011;1668;49.648;8.570;2023-07-22T10:17:40;4.60;;;2.27;;
3311;SDS011;1668;49.648;8.570;2023-07-22T10:20:08;5.33;;;2.67;;
3311;SDS011;1668;49.648;8.570;2023-07-22T10:22:40;6.43;;;2.70;;
3311;SDS011;1668;49.648;8.570;2023-07-22T10:25:09;5.87;;;2.60;;
3311;SDS011;1668;49.648;8.570;2023-07-22T10:27:38;5.70;;;2.63;;
3311;SDS011;1668;49.648;8.570;2023-07-22T10:30:07;8.80;;;3.03;;
3311;SDS011;1668;49.648;8.570;2023-07-22T10:32:35;3.97;;;2.80;;
3311;SDS011;1668;49.648;8.570;2023-07-22T10:35:03;4.13;;;2.77;;
3311;SDS011;1668;49.648;8.570;2023-07-22T10:37:35;5.90;;;2.73;;
3311;SDS011;1668;49.648;8.570;2023-07-22T10:40:16;6.03;;;2.90;;
3311;SDS011;1668;49.648;8.570;2023-07-22T10:42:52;5.17;;;2.67;;
3311;SDS011;1668;49.648;8.570;2023-07-22T10:45:27;5.90;;;2.97;;
3311;SDS011;1668;49.648;8.570;2023-07-22T10:48:02;4.43;;;2.73;;
3311;SDS011;1668;49.648;8.570;2023-07-22T10:50:37;6.13;;;3.20;;
3311;SDS011;1668;49.648;8.570;2023-07-22T10:53:09;7.03;;;3.10;;
3311;SDS011;1668;49.648;8.570;2023-07-22T10:58:54;4.00;;;3.10;;
3311;SDS011;1668;49.648;8.570;2023-07-22T11:01:32;5.13;;;2.90;;
3311;SDS011;1668;49.648;8.570;2023-07-22T11:06:56;6.20;;;2.53;;
3311;SDS011;1668;49.648;8.570;2023-07-22T11:09:37;4.50;;;2.77;;
3311;SDS011;1668;49.648;8.570;2023-07-22T11:12:07;4.53;;;2.70;;
3311;SDS011;1668;49.648;8.570;2023-07-22T11:14:45;6.80;;;3.27;;
3311;SDS011;1668;49.648;8.570;2023-07-22T11:17:13;4.83;;;2.80;;
3311;SDS011;1668;49.648;8.570;2023-07-22T11:19:41;7.40;;;3.03;;
3311;SDS011;1668;49.648;8.570;2023-07-22T11:22:07;4.47;;;2.83;;
3311;SDS011;1668;49.648;8.570;2023-07-22T11:24:35;3.70;;;2.67;;
3311;SDS011;1668;49.648;8.570;2023-07-22T11:27:03;5.63;;;2.93;;
3311;SDS011;1668;49.648;8.570;2023-07-22T11:29:31;4.70;;;2.70;;
3311;SDS011;1668;49.648;8.570;2023-07-22T11:31:59;7.23;;;3.37;;
3311;SDS011;1668;49.648;8.570;2023-07-22T11:34:29;5.73;;;2.90;;
3311;SDS011;1668;49.648;8.570;2023-07-22T11:36:56;3.20;;;2.70;;
3311;SDS011;1668;49.648;8.570;2023-07-22T11:39:24;7.10;;;2.87;;
3311;SDS011;1668;49.648;8.570;2023-07-22T11:41:52;6.90;;;3.20;;
3311;SDS011;1668;49.648;8.570;2023-07-22T11:44:19;4.53;;;3.00;;
3311;SDS011;1668;49.648;8.570;2023-07-22T11:46:48;9.90;;;2.83;;
3311;SDS011;1668;49.648;8.570;2023-07-22T11:49:27;3.90;;;3.07;;
3311;SDS011;1668;49.648;8.570;2023-07-22T11:51:55;6.17;;;2.87;;
3311;SDS011;1668;49.648;8.570;2023-07-22T11:54:24;4.33;;;3.10;;
3311;SDS011;1668;49.648;8.570;2023-07-22T11:56:52;4.60;;;2.60;;
3311;SDS011;1668;49.648;8.570;2023-07-22T11:59:36;4.33;;;2.77;;
3311;SDS011;1668;49.648;8.570;2023-07-22T12:02:04;3.90;;;2.80;;
3311;SDS011;1668;49.648;8.570;2023-07-22T12:04:33;4.33;;;2.50;;
3311;SDS011;1668;49.648;8.570;2023-07-22T12:07:00;7.97;;;2.47;;
3311;SDS011;1668;49.648;8.570;2023-07-22T12:09:29;2.97;;;2.43;;
3311;SDS011;1668;49.648;8.570;2023-07-22T12:11:56;3.70;;;2.60;;
3311;SDS011;1668;49.648;8.570;2023-07-22T12:14:23;5.60;;;2.60;;
3311;SDS011;1668;49.648;8.570;2023-07-22T12:16:52;3.80;;;2.67;;
3311;SDS011;1668;49.648;8.570;2023-07-22T12:19:23;3.70;;;2.60;;
3311;SDS011;1668;49.648;8.570;2023-07-22T12:21:51;4.83;;;2.63;;
3311;SDS011;1668;49.648;8.570;2023-07-22T12:24:18;8.40;;;2.80;;
3311;SDS011;1668;49.648;8.570;2023-07-22T12:26:45;4.23;;;2.53;;
3311;SDS011;1668;49.648;8.570;2023-07-22T12:29:11;6.57;;;2.80;;
3311;SDS011;1668;49.648;8.570;2023-07-22T12:31:38;5.83;;;2.70;;
3311;SDS011;1668;49.648;8.570;2023-07-22T12:34:05;5.70;;;2.77;;
3311;SDS011;1668;49.648;8.570;2023-07-22T12:36:32;7.43;;;2.80;;
3311;SDS011;1668;49.648;8.570;2023-07-22T12:39:00;3.23;;;2.47;;
3311;SDS011;1668;49.648;8.570;2023-07-22T12:41:28;4.20;;;2.60;;
3311;SDS011;1668;49.648;8.570;2023-07-22T12:43:55;3.60;;;2.30;;
3311;SDS011;1668;49.648;8.570;2023-07-22T12:46:21;4.37;;;2.30;;
3311;SDS011;1668;49.648;8.570;2023-07-22T12:48:48;5.97;;;2.33;;
3311;SDS011;1668;49.648;8.570;2023-07-22T12:51:15;9.17;;;2.43;;
3311;SDS011;1668;49.648;8.570;2023-07-22T12:53:42;6.07;;;3.00;;
3311;SDS011;1668;49.648;8.570;2023-07-22T12:56:10;3.90;;;2.20;;
3311;SDS011;1668;49.648;8.570;2023-07-22T12:58:37;3.37;;;2.10;;
3311;SDS011;1668;49.648;8.570;2023-07-22T13:01:04;3.30;;;2.57;;
3311;SDS011;1668;49.648;8.570;2023-07-22T13:03:31;3.93;;;2.40;;
3311;SDS011;1668;49.648;8.570;2023-07-22T13:05:58;3.57;;;2.40;;
3311;SDS011;1668;49.648;8.570;2023-07-22T13:08:25;6.67;;;3.03;;
3311;SDS011;1668;49.648;8.570;2023-07-22T13:10:51;3.33;;;2.60;;
3311;SDS011;1668;49.648;8.570;2023-07-22T13:13:20;5.73;;;2.67;;
3311;SDS011;1668;49.648;8.570;2023-07-22T13:15:46;3.47;;;2.60;;
3311;SDS011;1668;49.648;8.570;2023-07-22T13:18:13;7.10;;;2.30;;
3311;SDS011;1668;49.648;8.570;2023-07-22T13:20:41;6.00;;;2.40;;
3311;SDS011;1668;49.648;8.570;2023-07-22T13:23:08;3.70;;;2.40;;
3311;SDS011;1668;49.648;8.570;2023-07-22T13:25:35;3.30;;;2.70;;
3311;SDS011;1668;49.648;8.570;2023-07-22T13:28:02;2.77;;;2.10;;
3311;SDS011;1668;49.648;8.570;2023-07-22T13:30:30;5.00;;;2.30;;
3311;SDS011;1668;49.648;8.570;2023-07-22T13:32:57;4.47;;;2.60;;
3311;SDS011;1668;49.648;8.570;2023-07-22T13:35:23;5.43;;;2.70;;
3311;SDS011;1668;49.648;8.570;2023-07-22T13:37:50;6.10;;;2.70;;
3311;SDS011;1668;49.648;8.570;2023-07-22T13:40:17;3.30;;;2.70;;
3311;SDS011;1668;49.648;8.570;2023-07-22T13:42:44;5.07;;;2.80;;
3311;SDS011;1668;49.648;8.570;2023-07-22T13:45:11;6.50;;;2.53;;
3311;SDS011;1668;49.648;8.570;2023-07-22T13:47:39;5.03;;;2.20;;
3311;SDS011;1668;49.648;8.570;2023-07-22T13:50:06;2.80;;;2.30;;
3311;SDS011;1668;49.648;8.570;2023-07-22T13:52:34;2.77;;;2.33;;
3311;SDS011;1668;49.648;8.570;2023-07-22T13:55:01;4.13;;;3.00;;
3311;SDS011;1668;49.648;8.570;2023-07-22T13:57:28;5.40;;;2.43;;
3311;SDS011;1668;49.648;8.570;2023-07-22T13:59:55;3.63;;;2.80;;
3311;SDS011;1668;49.648;8.570;2023-07-22T14:02:22;3.47;;;2.57;;
3311;SDS011;1668;49.648;8.570;2023-07-22T14:04:50;5.80;;;2.50;;
3311;SDS011;1668;49.648;8.570;2023-07-22T14:07:17;3.20;;;2.47;;
3311;SDS011;1668;49.648;8.570;2023-07-22T14:09:44;3.60;;;2.90;;
3311;SDS011;1668;49.648;8.570;2023-07-22T14:12:11;7.33;;;2.53;;
3311;SDS011;1668;49.648;8.570;2023-07-22T14:14:38;4.03;;;3.17;;
3311;SDS011;1668;49.648;8.570;2023-07-22T14:17:05;4.57;;;2.20;;
3311;SDS011;1668;49.648;8.570;2023-07-22T14:19:32;7.40;;;2.90;;
3311;SDS011;1668;49.648;8.570;2023-07-22T14:22:00;13.50;;;2.87;;
3311;SDS011;1668;49.648;8.570;2023-07-22T14:24:28;7.90;;;2.60;;
3311;SDS011;1668;49.648;8.570;2023-07-22T14:26:55;3.70;;;2.13;;
3311;SDS011;1668;49.648;8.570;2023-07-22T14:29:23;2.73;;;2.33;;
3311;SDS011;1668;49.648;8.570;2023-07-22T14:31:50;5.20;;;2.90;;
3311;SDS011;1668;49.648;8.570;2023-07-22T14:34:17;4.90;;;3.33;;
3311;SDS011;1668;49.648;8.570;2023-07-22T14:36:44;3.90;;;3.00;;
3311;SDS011;1668;49.648;8.570;2023-07-22T14:39:12;7.23;;;2.97;;
3311;SDS011;1668;49.648;8.570;2023-07-22T14:41:40;4.77;;;3.33;;
3311;SDS011;1668;49.648;8.570;2023-07-22T14:44:08;3.83;;;3.03;;
3311;SDS011;1668;49.648;8.570;2023-07-22T14:46:35;4.80;;;3.30;;
3311;SDS011;1668;49.648;8.570;2023-07-22T14:49:02;4.30;;;2.60;;
3311;SDS011;1668;49.648;8.570;2023-07-22T14:51:30;6.07;;;3.10;;
3311;SDS011;1668;49.648;8.570;2023-07-22T14:53:56;4.17;;;2.60;;
3311;SDS011;1668;49.648;8.570;2023-07-22T14:56:25;10.47;;;3.27;;
3311;SDS011;1668;49.648;8.570;2023-07-22T14:58:51;2.93;;;2.60;;
3311;SDS011;1668;49.648;8.570;2023-07-22T15:01:18;3.87;;;2.57;;
3311;SDS011;1668;49.648;8.570;2023-07-22T15:03:47;3.80;;;3.00;;
3311;SDS011;1668;49.648;8.570;2023-07-22T15:06:14;4.57;;;3.37;;
3311;SDS011;1668;49.648;8.570;2023-07-22T15:08:41;5.17;;;3.23;;
3311;SDS011;1668;49.648;8.570;2023-07-22T15:11:08;5.07;;;2.90;;
3311;SDS011;1668;49.648;8.570;2023-07-22T15:13:36;6.60;;;3.80;;
3311;SDS011;1668;49.648;8.570;2023-07-22T15:16:03;6.40;;;3.13;;
3311;SDS011;1668;49.648;8.570;2023-07-22T15:18:30;4.70;;;3.30;;
3311;SDS011;1668;49.648;8.570;2023-07-22T15:20:57;4.67;;;3.17;;
3311;SDS011;1668;49.648;8.570;2023-07-22T15:23:24;3.93;;;3.23;;
3311;SDS011;1668;49.648;8.570;2023-07-22T15:25:51;4.17;;;3.10;;